sensor_id;sensor_type;location;lat;lon;timestamp;P1;durP1;ratioP1;P2;durP2;ratioP2
12921;SDS011;6528;48.086;16.282;2022-12-20T00:00:50;14.73;;;12.30;;
12921;SDS011;6528;48.086;16.282;2022-12-20T00:03:17;15.60;;;13.40;;
12921;SDS011;6528;48.086;16.282;2022-12-20T00:05:46;15.60;;;12.93;;
12921;SDS011;6528;48.086;16.282;2022-12-20T00:08:13;14.20;;;12.70;;
12921;SDS011;6528;48.086;16.282;2022-12-20T00:10:41;13.30;;;11.10;;
12921;SDS011;6528;48.086;16.282;2022-12-20T00:13:09;13.60;;;12.10;;
12921;SDS011;6528;48.086;16.282;2022-12-20T00:15:36;14.40;;;12.90;;
12921;SDS011;6528;48.086;16.282;2022-12-20T00:18:04;15.77;;;12.47;;
12921;SDS011;6528;48.086;16.282;2022-12-20T00:20:31;14.10;;;12.60;;
12921;SDS011;6528;48.086;16.282;2022-12-20T00:22:58;13.60;;;12.20;;
12921;SDS011;6528;48.086;16.282;2022-12-20T00:25:26;13.93;;;12.03;;
12921;SDS011;6528;48.086;16.282;2022-12-20T00:27:53;13.50;;;12.10;;
12921;SDS011;6528;48.086;16.282;2022-12-20T00:30:20;14.00;;;11.57;;
12921;SDS011;6528;48.086;16.282;2022-12-20T00:32:47;14.77;;;13.20;;
12921;SDS011;6528;48.086;16.282;2022-12-20T00:35:15;12.37;;;11.03;;
12921;SDS011;6528;48.086;16.282;2022-12-20T00:37:42;13.60;;;11.40;;
12921;SDS011;6528;48.086;16.282;2022-12-20T00:40:09;13.37;;;11.97;;
12921;SDS011;6528;48.086;16.282;2022-12-20T00:42:36;15.07;;;13.47;;
12921;SDS011;6528;48.086;16.282;2022-12-20T00:45:03;14.10;;;12.30;;
12921;SDS011;6528;48.086;16.282;2022-12-20T00:47:31;14.27;;;12.50;;
12921;SDS011;6528;48.086;16.282;2022-12-20T00:49:58;13.97;;;12.47;;
12921;SDS011;6528;48.086;16.282;2022-12-20T00:52:25;13.30;;;12.00;;
12921;SDS011;6528;48.086;16.282;2022-12-20T00:54:53;15.97;;;13.00;;
12921;SDS011;6528;48.086;16.282;2022-12-20T00:57:20;14.87;;;12.63;;
12921;SDS011;6528;48.086;16.282;2022-12-20T00:59:47;12.73;;;11.43;;
12921;SDS011;6528;48.086;16.282;2022-12-20T01:02:14;16.10;;;12.40;;
12921;SDS011;6528;48.086;16.282;2022-12-20T01:04:41;15.30;;;12.67;;
12921;SDS011;6528;48.086;16.282;2022-12-20T01:07:08;15.77;;;12.90;;
12921;SDS011;6528;48.086;16.282;2022-12-20T01:09:37;16.00;;;13.63;;
12921;SDS011;6528;48.086;16.282;2022-12-20T01:12:04;14.27;;;12.50;;
12921;SDS011;6528;48.086;16.282;2022-12-20T01:14:31;15.00;;;13.00;;
12921;SDS011;6528;48.086;16.282;2022-12-20T01:16:58;14.60;;;12.00;;
12921;SDS011;6528;48.086;16.282;2022-12-20T01:19:26;16.30;;;13.70;;
12921;SDS011;6528;48.086;16.282;2022-12-20T01:21:53;13.13;;;11.67;;
12921;SDS011;6528;48.086;16.282;2022-12-20T01:24:20;14.27;;;12.00;;
12921;SDS011;6528;48.086;16.282;2022-12-20T01:26:47;15.97;;;12.73;;
12921;SDS011;6528;48.086;16.282;2022-12-20T01:29:14;14.53;;;13.03;;
12921;SDS011;6528;48.086;16.282;2022-12-20T01:31:42;13.93;;;11.83;;
12921;SDS011;6528;48.086;16.282;2022-12-20T01:34:09;12.93;;;11.53;;
12921;SDS011;6528;48.086;16.282;2022-12-20T01:36:37;15.57;;;12.57;;
12921;SDS011;6528;48.086;16.282;2022-12-20T01:39:05;14.47;;;12.80;;
12921;SDS011;6528;48.086;16.282;2022-12-20T01:41:34;13.63;;;11.87;;
12921;SDS011;6528;48.086;16.282;2022-12-20T01:46:29;15.07;;;12.53;;
12921;SDS011;6528;48.086;16.282;2022-12-20T01:49:21;17.17;;;12.80;;
12921;SDS011;6528;48.086;16.282;2022-12-20T01:54:31;17.37;;;13.90;;
12921;SDS011;6528;48.086;16.282;2022-12-20T01:57:01;13.63;;;11.80;;
12921;SDS011;6528;48.086;16.282;2022-12-20T01:59:29;15.27;;;13.13;;
12921;SDS011;6528;48.086;16.282;2022-12-20T02:01:58;13.47;;;11.27;;
12921;SDS011;6528;48.086;16.282;2022-12-20T02:04:27;12.77;;;11.47;;
12921;SDS011;6528;48.086;16.282;2022-12-20T02:06:55;16.03;;;12.80;;
12921;SDS011;6528;48.086;16.282;2022-12-20T02:09:23;14.30;;;12.40;;
12921;SDS011;6528;48.086;16.282;2022-12-20T02:16:48;14.87;;;12.70;;
12921;SDS011;6528;48.086;16.282;2022-12-20T02:19:37;15.13;;;12.40;;
12921;SDS011;6528;48.086;16.282;2022-12-20T02:25:04;13.57;;;11.93;;
12921;SDS011;6528;48.086;16.282;2022-12-20T02:27:45;14.43;;;12.33;;
12921;SDS011;6528;48.086;16.282;2022-12-20T02:30:16;14.23;;;11.90;;
12921;SDS011;6528;48.086;16.282;2022-12-20T02:35:12;14.53;;;11.97;;
12921;SDS011;6528;48.086;16.282;2022-12-20T02:37:53;15.00;;;12.83;;
12921;SDS011;6528;48.086;16.282;2022-12-20T02:40:26;14.70;;;11.57;;
12921;SDS011;6528;48.086;16.282;2022-12-20T02:42:58;16.40;;;13.00;;
12921;SDS011;6528;48.086;16.282;2022-12-20T02:45:26;13.57;;;12.17;;
12921;SDS011;6528;48.086;16.282;2022-12-20T02:48:08;13.80;;;12.30;;
12921;SDS011;6528;48.086;16.282;2022-12-20T02:50:39;15.57;;;11.87;;
12921;SDS011;6528;48.086;16.282;2022-12-20T02:53:09;14.13;;;12.33;;
12921;SDS011;6528;48.086;16.282;2022-12-20T02:55:42;13.13;;;11.40;;
12921;SDS011;6528;48.086;16.282;2022-12-20T02:58:23;17.07;;;12.90;;
12921;SDS011;6528;48.086;16.282;2022-12-20T03:00:52;13.17;;;11.70;;
12921;SDS011;6528;48.086;16.282;2022-12-20T03:03:22;14.77;;;12.10;;
12921;SDS011;6528;48.086;16.282;2022-12-20T03:05:51;13.97;;;12.00;;
12921;SDS011;6528;48.086;16.282;2022-12-20T03:08:19;14.80;;;12.07;;
12921;SDS011;6528;48.086;16.282;2022-12-20T03:10:46;17.67;;;12.53;;
12921;SDS011;6528;48.086;16.282;2022-12-20T03:13:14;13.97;;;12.43;;
12921;SDS011;6528;48.086;16.282;2022-12-20T03:15:41;13.50;;;12.10;;
12921;SDS011;6528;48.086;16.282;2022-12-20T03:18:08;15.33;;;12.50;;
12921;SDS011;6528;48.086;16.282;2022-12-20T03:20:36;12.93;;;11.40;;
12921;SDS011;6528;48.086;16.282;2022-12-20T03:23:03;13.20;;;11.80;;
12921;SDS011;6528;48.086;16.282;2022-12-20T03:25:30;15.30;;;12.40;;
12921;SDS011;6528;48.086;16.282;2022-12-20T03:27:57;14.23;;;12.73;;
12921;SDS011;6528;48.086;16.282;2022-12-20T03:30:25;15.90;;;12.53;;
12921;SDS011;6528;48.086;16.282;2022-12-20T03:32:52;16.77;;;12.37;;
12921;SDS011;6528;48.086;16.282;2022-12-20T03:35:19;14.77;;;12.83;;
12921;SDS011;6528;48.086;16.282;2022-12-20T03:37:46;14.83;;;12.30;;
12921;SDS011;6528;48.086;16.282;2022-12-20T03:40:13;15.03;;;13.13;;
12921;SDS011;6528;48.086;16.282;2022-12-20T03:42:41;15.57;;;12.57;;
12921;SDS011;6528;48.086;16.282;2022-12-20T03:45:09;15.10;;;12.37;;
12921;SDS011;6528;48.086;16.282;2022-12-20T03:47:36;14.87;;;12.50;;
12921;SDS011;6528;48.086;16.282;2022-12-20T03:50:04;16.37;;;13.40;;
12921;SDS011;6528;48.086;16.282;2022-12-20T03:52:31;16.00;;;12.80;;
12921;SDS011;6528;48.086;16.282;2022-12-20T03:54:59;14.23;;;12.70;;
12921;SDS011;6528;48.086;16.282;2022-12-20T03:57:26;14.77;;;11.97;;
12921;SDS011;6528;48.086;16.282;2022-12-20T03:59:53;14.07;;;12.20;;
12921;SDS011;6528;48.086;16.282;2022-12-20T04:02:20;14.03;;;11.43;;
12921;SDS011;6528;48.086;16.282;2022-12-20T04:04:48;15.20;;;12.73;;
12921;SDS011;6528;48.086;16.282;2022-12-20T04:07:15;12.50;;;11.03;;
12921;SDS011;6528;48.086;16.282;2022-12-20T04:09:43;14.80;;;12.37;;
12921;SDS011;6528;48.086;16.282;2022-12-20T04:12:10;15.43;;;12.10;;
12921;SDS011;6528;48.086;16.282;2022-12-20T04:14:37;13.90;;;11.90;;
12921;SDS011;6528;48.086;16.282;2022-12-20T04:17:04;14.03;;;11.23;;
12921;SDS011;6528;48.086;16.282;2022-12-20T04:19:31;16.63;;;12.57;;
12921;SDS011;6528;48.086;16.282;2022-12-20T04:21:59;14.20;;;12.17;;
12921;SDS011;6528;48.086;16.282;2022-12-20T04:24:31;13.63;;;11.50;;
12921;SDS011;6528;48.086;16.282;2022-12-20T04:26:58;13.57;;;11.67;;
12921;SDS011;6528;48.086;16.282;2022-12-20T04:29:26;14.43;;;11.97;;
12921;SDS011;6528;48.086;16.282;2022-12-20T04:31:53;14.60;;;12.30;;
12921;SDS011;6528;48.086;16.282;2022-12-20T04:34:20;13.60;;;11.50;;
12921;SDS011;6528;48.086;16.282;2022-12-20T04:36:47;13.67;;;11.90;;
12921;SDS011;6528;48.086;16.282;2022-12-20T04:39:14;13.00;;;11.30;;
12921;SDS011;6528;48.086;16.282;2022-12-20T04:41:41;14.20;;;11.73;;
12921;SDS011;6528;48.086;16.282;2022-12-20T04:44:09;13.13;;;11.43;;
12921;SDS011;6528;48.086;16.282;2022-12-20T04:46:36;12.20;;;10.90;;
12921;SDS011;6528;48.086;16.282;2022-12-20T04:49:03;15.07;;;13.30;;
12921;SDS011;6528;48.086;16.282;2022-12-20T04:51:30;14.13;;;12.43;;
12921;SDS011;6528;48.086;16.282;2022-12-20T04:53:57;13.53;;;11.93;;
12921;SDS011;6528;48.086;16.282;2022-12-20T04:56:26;14.50;;;12.10;;
12921;SDS011;6528;48.086;16.282;2022-12-20T04:58:54;14.40;;;11.60;;
12921;SDS011;6528;48.086;16.282;2022-12-20T05:01:21;16.20;;;12.40;;
12921;SDS011;6528;48.086;16.282;2022-12-20T05:03:49;13.03;;;11.63;;
12921;SDS011;6528;48.086;16.282;2022-12-20T05:06:16;14.50;;;12.07;;
12921;SDS011;6528;48.086;16.282;2022-12-20T05:08:43;14.80;;;12.13;;
12921;SDS011;6528;48.086;16.282;2022-12-20T05:11:10;12.00;;;10.70;;
12921;SDS011;6528;48.086;16.282;2022-12-20T05:13:38;13.07;;;11.10;;
12921;SDS011;6528;48.086;16.282;2022-12-20T05:16:05;13.33;;;11.93;;
12921;SDS011;6528;48.086;16.282;2022-12-20T05:18:32;13.20;;;11.53;;
12921;SDS011;6528;48.086;16.282;2022-12-20T05:21:00;15.03;;;12.13;;
12921;SDS011;6528;48.086;16.282;2022-12-20T05:23:46;14.93;;;11.47;;
12921;SDS011;6528;48.086;16.282;2022-12-20T05:26:34;15.97;;;12.80;;
12921;SDS011;6528;48.086;16.282;2022-12-20T05:29:02;16.50;;;12.87;;
12921;SDS011;6528;48.086;16.282;2022-12-20T05:31:29;13.97;;;12.03;;
12921;SDS011;6528;48.086;16.282;2022-12-20T05:33:57;13.53;;;11.40;;
12921;SDS011;6528;48.086;16.282;2022-12-20T05:36:24;15.47;;;12.07;;
12921;SDS011;6528;48.086;16.282;2022-12-20T05:38:51;13.13;;;11.10;;
12921;SDS011;6528;48.086;16.282;2022-12-20T05:41:26;16.53;;;13.37;;
12921;SDS011;6528;48.086;16.282;2022-12-20T05:43:54;13.13;;;11.00;;
12921;SDS011;6528;48.086;16.282;2022-12-20T05:46:21;13.93;;;11.90;;
12921;SDS011;6528;48.086;16.282;2022-12-20T05:48:48;14.83;;;12.17;;
12921;SDS011;6528;48.086;16.282;2022-12-20T05:51:15;13.17;;;11.77;;
12921;SDS011;6528;48.086;16.282;2022-12-20T05:53:42;15.33;;;12.10;;
12921;SDS011;6528;48.086;16.282;2022-12-20T05:56:09;13.77;;;12.20;;
12921;SDS011;6528;48.086;16.282;2022-12-20T05:58:37;15.40;;;13.03;;
12921;SDS011;6528;48.086;16.282;2022-12-20T06:01:05;14.30;;;12.53;;
12921;SDS011;6528;48.086;16.282;2022-12-20T06:03:33;13.03;;;11.63;;
12921;SDS011;6528;48.086;16.282;2022-12-20T06:06:00;15.53;;;12.67;;
12921;SDS011;6528;48.086;16.282;2022-12-20T06:08:27;13.27;;;11.53;;
12921;SDS011;6528;48.086;16.282;2022-12-20T06:10:54;14.20;;;12.70;;
12921;SDS011;6528;48.086;16.282;2022-12-20T06:13:21;15.10;;;12.60;;
12921;SDS011;6528;48.086;16.282;2022-12-20T06:15:49;15.43;;;13.13;;
12921;SDS011;6528;48.086;16.282;2022-12-20T06:18:16;14.63;;;12.87;;
12921;SDS011;6528;48.086;16.282;2022-12-20T06:20:48;14.20;;;12.60;;
12921;SDS011;6528;48.086;16.282;2022-12-20T06:23:15;15.20;;;13.60;;
12921;SDS011;6528;48.086;16.282;2022-12-20T06:25:42;15.17;;;13.23;;
12921;SDS011;6528;48.086;16.282;2022-12-20T06:28:10;15.17;;;12.70;;
12921;SDS011;6528;48.086;16.282;2022-12-20T06:30:37;16.17;;;13.63;;
12921;SDS011;6528;48.086;16.282;2022-12-20T06:33:04;16.03;;;13.27;;
12921;SDS011;6528;48.086;16.282;2022-12-20T06:35:31;15.80;;;12.20;;
12921;SDS011;6528;48.086;16.282;2022-12-20T06:37:58;17.30;;;12.97;;
12921;SDS011;6528;48.086;16.282;2022-12-20T06:40:25;15.67;;;13.10;;
12921;SDS011;6528;48.086;16.282;2022-12-20T06:42:52;15.40;;;11.80;;
12921;SDS011;6528;48.086;16.282;2022-12-20T06:45:19;17.87;;;12.47;;
12921;SDS011;6528;48.086;16.282;2022-12-20T06:47:47;15.60;;;13.17;;
12921;SDS011;6528;48.086;16.282;2022-12-20T06:50:14;17.40;;;12.93;;
12921;SDS011;6528;48.086;16.282;2022-12-20T06:52:41;16.47;;;13.60;;
12921;SDS011;6528;48.086;16.282;2022-12-20T06:55:08;17.73;;;15.83;;
12921;SDS011;6528;48.086;16.282;2022-12-20T06:57:35;16.90;;;15.10;;
12921;SDS011;6528;48.086;16.282;2022-12-20T07:00:03;17.70;;;15.23;;
12921;SDS011;6528;48.086;16.282;2022-12-20T07:02:31;16.43;;;14.40;;
12921;SDS011;6528;48.086;16.282;2022-12-20T07:04:58;18.43;;;14.30;;
12921;SDS011;6528;48.086;16.282;2022-12-20T07:07:26;19.33;;;16.20;;
12921;SDS011;6528;48.086;16.282;2022-12-20T07:09:53;18.90;;;15.73;;
12921;SDS011;6528;48.086;16.282;2022-12-20T07:12:20;20.60;;;15.90;;
12921;SDS011;6528;48.086;16.282;2022-12-20T07:14:48;19.90;;;15.70;;
12921;SDS011;6528;48.086;16.282;2022-12-20T07:17:18;23.70;;;16.60;;
12921;SDS011;6528;48.086;16.282;2022-12-20T07:19:45;20.20;;;15.50;;
12921;SDS011;6528;48.086;16.282;2022-12-20T07:22:16;17.57;;;14.93;;
12921;SDS011;6528;48.086;16.282;2022-12-20T07:24:44;24.77;;;16.20;;
12921;SDS011;6528;48.086;16.282;2022-12-20T07:27:12;20.73;;;16.73;;
12921;SDS011;6528;48.086;16.282;2022-12-20T07:29:39;21.83;;;16.53;;
12921;SDS011;6528;48.086;16.282;2022-12-20T07:32:07;21.20;;;16.77;;
12921;SDS011;6528;48.086;16.282;2022-12-20T07:34:37;23.53;;;17.30;;
12921;SDS011;6528;48.086;16.282;2022-12-20T07:37:04;21.93;;;16.87;;
12921;SDS011;6528;48.086;16.282;2022-12-20T07:39:33;24.70;;;17.07;;
12921;SDS011;6528;48.086;16.282;2022-12-20T07:42:00;22.13;;;17.30;;
12921;SDS011;6528;48.086;16.282;2022-12-20T07:44:28;18.77;;;15.77;;
12921;SDS011;6528;48.086;16.282;2022-12-20T07:46:55;22.40;;;17.93;;
12921;SDS011;6528;48.086;16.282;2022-12-20T07:49:22;26.70;;;18.03;;
12921;SDS011;6528;48.086;16.282;2022-12-20T07:51:51;24.63;;;18.63;;
12921;SDS011;6528;48.086;16.282;2022-12-20T07:54:20;23.47;;;18.67;;
12921;SDS011;6528;48.086;16.282;2022-12-20T07:56:49;24.50;;;18.43;;
12921;SDS011;6528;48.086;16.282;2022-12-20T07:59:18;23.23;;;18.70;;
12921;SDS011;6528;48.086;16.282;2022-12-20T08:01:46;22.97;;;20.20;;
12921;SDS011;6528;48.086;16.282;2022-12-20T08:04:15;29.37;;;19.97;;
12921;SDS011;6528;48.086;16.282;2022-12-20T08:06:43;27.53;;;20.20;;
12921;SDS011;6528;48.086;16.282;2022-12-20T08:09:11;24.90;;;20.30;;
12921;SDS011;6528;48.086;16.282;2022-12-20T08:11:39;25.07;;;20.10;;
12921;SDS011;6528;48.086;16.282;2022-12-20T08:14:09;25.37;;;19.57;;
12921;SDS011;6528;48.086;16.282;2022-12-20T08:16:37;23.50;;;19.97;;
12921;SDS011;6528;48.086;16.282;2022-12-20T08:19:04;24.33;;;19.23;;
12921;SDS011;6528;48.086;16.282;2022-12-20T08:21:31;26.77;;;20.20;;
12921;SDS011;6528;48.086;16.282;2022-12-20T08:23:58;24.00;;;19.70;;
12921;SDS011;6528;48.086;16.282;2022-12-20T08:26:26;23.07;;;18.30;;
12921;SDS011;6528;48.086;16.282;2022-12-20T08:28:53;22.30;;;18.20;;
12921;SDS011;6528;48.086;16.282;2022-12-20T08:31:21;25.83;;;19.00;;
12921;SDS011;6528;48.086;16.282;2022-12-20T08:33:48;29.07;;;20.00;;
12921;SDS011;6528;48.086;16.282;2022-12-20T08:36:15;21.03;;;17.37;;
12921;SDS011;6528;48.086;16.282;2022-12-20T08:38:42;26.17;;;19.60;;
12921;SDS011;6528;48.086;16.282;2022-12-20T08:41:10;23.07;;;18.13;;
12921;SDS011;6528;48.086;16.282;2022-12-20T08:43:38;21.50;;;17.70;;
12921;SDS011;6528;48.086;16.282;2022-12-20T08:46:06;22.90;;;18.47;;
12921;SDS011;6528;48.086;16.282;2022-12-20T08:48:33;22.67;;;18.27;;
12921;SDS011;6528;48.086;16.282;2022-12-20T08:51:05;21.53;;;18.30;;
12921;SDS011;6528;48.086;16.282;2022-12-20T08:53:32;22.07;;;18.07;;
12921;SDS011;6528;48.086;16.282;2022-12-20T08:56:04;20.87;;;17.47;;
12921;SDS011;6528;48.086;16.282;2022-12-20T08:58:32;20.20;;;16.40;;
12921;SDS011;6528;48.086;16.282;2022-12-20T09:00:59;21.93;;;17.90;;
12921;SDS011;6528;48.086;16.282;2022-12-20T09:03:32;18.30;;;15.77;;
12921;SDS011;6528;48.086;16.282;2022-12-20T09:06:00;24.30;;;18.47;;
12921;SDS011;6528;48.086;16.282;2022-12-20T09:08:27;26.00;;;16.67;;
12921;SDS011;6528;48.086;16.282;2022-12-20T09:11:02;20.93;;;17.13;;
12921;SDS011;6528;48.086;16.282;2022-12-20T09:13:29;20.27;;;17.03;;
12921;SDS011;6528;48.086;16.282;2022-12-20T09:15:58;22.17;;;17.40;;
12921;SDS011;6528;48.086;16.282;2022-12-20T09:18:26;22.87;;;17.03;;
12921;SDS011;6528;48.086;16.282;2022-12-20T09:20:53;21.80;;;16.60;;
12921;SDS011;6528;48.086;16.282;2022-12-20T09:23:20;21.07;;;17.20;;
12921;SDS011;6528;48.086;16.282;2022-12-20T09:25:47;20.30;;;16.60;;
12921;SDS011;6528;48.086;16.282;2022-12-20T09:28:19;24.40;;;17.27;;
12921;SDS011;6528;48.086;16.282;2022-12-20T09:30:46;20.07;;;16.77;;
12921;SDS011;6528;48.086;16.282;2022-12-20T09:33:13;22.40;;;17.93;;
12921;SDS011;6528;48.086;16.282;2022-12-20T09:35:47;22.10;;;17.47;;
12921;SDS011;6528;48.086;16.282;2022-12-20T09:38:14;21.50;;;16.20;;
12921;SDS011;6528;48.086;16.282;2022-12-20T09:40:45;21.83;;;16.67;;
12921;SDS011;6528;48.086;16.282;2022-12-20T09:43:13;24.00;;;18.07;;
12921;SDS011;6528;48.086;16.282;2022-12-20T09:45:42;24.10;;;18.70;;
12921;SDS011;6528;48.086;16.282;2022-12-20T09:48:19;26.60;;;20.37;;
12921;SDS011;6528;48.086;16.282;2022-12-20T09:56:22;25.80;;;18.90;;
12921;SDS011;6528;48.086;16.282;2022-12-20T09:58:58;23.73;;;19.00;;
12921;SDS011;6528;48.086;16.282;2022-12-20T10:01:27;25.97;;;18.87;;
12921;SDS011;6528;48.086;16.282;2022-12-20T10:04:11;22.17;;;17.87;;
12921;SDS011;6528;48.086;16.282;2022-12-20T10:06:44;23.30;;;17.73;;
12921;SDS011;6528;48.086;16.282;2022-12-20T10:17:04;21.70;;;17.33;;
12921;SDS011;6528;48.086;16.282;2022-12-20T10:22:22;23.63;;;17.53;;
12921;SDS011;6528;48.086;16.282;2022-12-20T10:27:39;20.20;;;16.87;;
12921;SDS011;6528;48.086;16.282;2022-12-20T10:30:13;22.83;;;18.67;;
12921;SDS011;6528;48.086;16.282;2022-12-20T10:32:42;24.17;;;18.10;;
12921;SDS011;6528;48.086;16.282;2022-12-20T10:37:55;18.70;;;15.30;;
12921;SDS011;6528;48.086;16.282;2022-12-20T10:40:34;19.17;;;15.13;;
12921;SDS011;6528;48.086;16.282;2022-12-20T10:43:22;18.97;;;15.00;;
12921;SDS011;6528;48.086;16.282;2022-12-20T10:45:56;20.30;;;14.93;;
12921;SDS011;6528;48.086;16.282;2022-12-20T10:48:29;28.20;;;19.80;;
12921;SDS011;6528;48.086;16.282;2022-12-20T10:50:58;24.50;;;18.30;;
12921;SDS011;6528;48.086;16.282;2022-12-20T10:53:26;31.83;;;25.10;;
12921;SDS011;6528;48.086;16.282;2022-12-20T10:56:03;31.87;;;25.60;;
12921;SDS011;6528;48.086;16.282;2022-12-20T10:58:34;32.77;;;22.80;;
12921;SDS011;6528;48.086;16.282;2022-12-20T11:03:39;29.80;;;21.37;;
12921;SDS011;6528;48.086;16.282;2022-12-20T11:06:15;31.33;;;21.37;;
12921;SDS011;6528;48.086;16.282;2022-12-20T11:08:43;30.83;;;21.40;;
12921;SDS011;6528;48.086;16.282;2022-12-20T11:11:22;31.13;;;20.80;;
12921;SDS011;6528;48.086;16.282;2022-12-20T11:13:50;31.43;;;21.23;;
12921;SDS011;6528;48.086;16.282;2022-12-20T11:21:40;29.43;;;21.33;;
12921;SDS011;6528;48.086;16.282;2022-12-20T11:24:11;27.67;;;18.60;;
12921;SDS011;6528;48.086;16.282;2022-12-20T11:34:39;27.73;;;19.27;;
12921;SDS011;6528;48.086;16.282;2022-12-20T11:37:09;27.20;;;18.70;;
12921;SDS011;6528;48.086;16.282;2022-12-20T11:39:52;24.30;;;17.87;;
12921;SDS011;6528;48.086;16.282;2022-12-20T11:42:25;24.80;;;18.43;;
12921;SDS011;6528;48.086;16.282;2022-12-20T11:47:45;25.33;;;18.33;;
12921;SDS011;6528;48.086;16.282;2022-12-20T11:52:51;21.03;;;17.30;;
12921;SDS011;6528;48.086;16.282;2022-12-20T11:55:53;22.87;;;17.13;;
12921;SDS011;6528;48.086;16.282;2022-12-20T11:58:32;20.70;;;15.80;;
12921;SDS011;6528;48.086;16.282;2022-12-20T12:01:08;22.17;;;15.90;;
12921;SDS011;6528;48.086;16.282;2022-12-20T12:03:38;21.90;;;17.33;;
12921;SDS011;6528;48.086;16.282;2022-12-20T12:06:08;23.63;;;15.13;;
12921;SDS011;6528;48.086;16.282;2022-12-20T12:11:07;20.80;;;15.70;;
12921;SDS011;6528;48.086;16.282;2022-12-20T12:13:58;21.40;;;15.90;;
12921;SDS011;6528;48.086;16.282;2022-12-20T12:16:38;21.13;;;16.40;;
12921;SDS011;6528;48.086;16.282;2022-12-20T12:19:10;20.33;;;15.60;;
12921;SDS011;6528;48.086;16.282;2022-12-20T12:21:39;22.00;;;15.67;;
12921;SDS011;6528;48.086;16.282;2022-12-20T12:24:20;21.00;;;15.37;;
12921;SDS011;6528;48.086;16.282;2022-12-20T12:26:50;23.70;;;17.50;;
12921;SDS011;6528;48.086;16.282;2022-12-20T12:29:18;20.97;;;15.97;;
12921;SDS011;6528;48.086;16.282;2022-12-20T12:46:47;18.70;;;15.00;;
12921;SDS011;6528;48.086;16.282;2022-12-20T12:49:18;17.13;;;14.40;;
12921;SDS011;6528;48.086;16.282;2022-12-20T12:51:57;19.13;;;14.30;;
12921;SDS011;6528;48.086;16.282;2022-12-20T12:54:29;18.90;;;14.50;;
12921;SDS011;6528;48.086;16.282;2022-12-20T12:57:01;16.80;;;14.30;;
12921;SDS011;6528;48.086;16.282;2022-12-20T13:04:30;16.13;;;14.10;;
12921;SDS011;6528;48.086;16.282;2022-12-20T13:07:24;20.57;;;15.20;;
12921;SDS011;6528;48.086;16.282;2022-12-20T13:09:52;17.17;;;14.40;;
12921;SDS011;6528;48.086;16.282;2022-12-20T13:20:16;18.37;;;13.13;;
12921;SDS011;6528;48.086;16.282;2022-12-20T13:23:29;16.50;;;13.53;;
12921;SDS011;6528;48.086;16.282;2022-12-20T13:33:20;18.33;;;14.03;;
12921;SDS011;6528;48.086;16.282;2022-12-20T13:35:53;18.03;;;14.07;;
12921;SDS011;6528;48.086;16.282;2022-12-20T13:38:39;17.10;;;12.77;;
12921;SDS011;6528;48.086;16.282;2022-12-20T13:43:42;15.83;;;12.93;;
12921;SDS011;6528;48.086;16.282;2022-12-20T13:51:12;15.43;;;13.63;;
12921;SDS011;6528;48.086;16.282;2022-12-20T13:53:48;18.63;;;15.17;;
12921;SDS011;6528;48.086;16.282;2022-12-20T13:56:51;20.00;;;15.03;;
12921;SDS011;6528;48.086;16.282;2022-12-20T14:01:50;16.80;;;13.83;;
12921;SDS011;6528;48.086;16.282;2022-12-20T14:04:18;18.70;;;13.30;;
12921;SDS011;6528;48.086;16.282;2022-12-20T14:06:50;14.93;;;12.33;;
12921;SDS011;6528;48.086;16.282;2022-12-20T14:09:32;15.07;;;12.43;;
12921;SDS011;6528;48.086;16.282;2022-12-20T14:14:35;17.20;;;13.27;;
12921;SDS011;6528;48.086;16.282;2022-12-20T14:23:08;14.63;;;12.90;;
12921;SDS011;6528;48.086;16.282;2022-12-20T14:25:47;16.93;;;13.03;;
12921;SDS011;6528;48.086;16.282;2022-12-20T14:28:27;16.63;;;13.30;;
12921;SDS011;6528;48.086;16.282;2022-12-20T14:30:55;14.90;;;12.90;;
12921;SDS011;6528;48.086;16.282;2022-12-20T14:33:28;18.27;;;13.83;;
12921;SDS011;6528;48.086;16.282;2022-12-20T14:35:56;14.70;;;12.97;;
12921;SDS011;6528;48.086;16.282;2022-12-20T14:38:28;13.90;;;11.33;;
12921;SDS011;6528;48.086;16.282;2022-12-20T14:40:56;15.43;;;12.90;;
12921;SDS011;6528;48.086;16.282;2022-12-20T14:43:28;17.97;;;13.73;;
12921;SDS011;6528;48.086;16.282;2022-12-20T14:46:17;16.43;;;12.60;;
12921;SDS011;6528;48.086;16.282;2022-12-20T14:48:45;17.40;;;13.43;;
12921;SDS011;6528;48.086;16.282;2022-12-20T14:51:13;17.07;;;13.07;;
12921;SDS011;6528;48.086;16.282;2022-12-20T14:53:46;15.93;;;13.43;;
12921;SDS011;6528;48.086;16.282;2022-12-20T14:56:17;13.67;;;12.27;;
12921;SDS011;6528;48.086;16.282;2022-12-20T14:59:02;18.27;;;15.30;;
12921;SDS011;6528;48.086;16.282;2022-12-20T15:01:31;18.20;;;14.13;;
12921;SDS011;6528;48.086;16.282;2022-12-20T15:07:27;15.47;;;13.03;;
12921;SDS011;6528;48.086;16.282;2022-12-20T15:09:53;15.17;;;13.33;;
12921;SDS011;6528;48.086;16.282;2022-12-20T15:12:20;15.17;;;12.77;;
12921;SDS011;6528;48.086;16.282;2022-12-20T15:14:48;16.07;;;12.93;;
12921;SDS011;6528;48.086;16.282;2022-12-20T15:17:15;15.27;;;12.67;;
12921;SDS011;6528;48.086;16.282;2022-12-20T15:19:42;16.50;;;13.20;;
12921;SDS011;6528;48.086;16.282;2022-12-20T15:22:13;15.73;;;12.47;;
12921;SDS011;6528;48.086;16.282;2022-12-20T15:24:41;14.87;;;13.10;;
12921;SDS011;6528;48.086;16.282;2022-12-20T15:27:11;16.30;;;13.87;;
12921;SDS011;6528;48.086;16.282;2022-12-20T15:29:39;15.60;;;13.10;;
12921;SDS011;6528;48.086;16.282;2022-12-20T15:32:12;14.73;;;13.10;;
12921;SDS011;6528;48.086;16.282;2022-12-20T15:34:40;16.00;;;13.27;;
12921;SDS011;6528;48.086;16.282;2022-12-20T15:37:10;17.53;;;14.30;;
12921;SDS011;6528;48.086;16.282;2022-12-20T15:39:44;15.63;;;12.67;;
12921;SDS011;6528;48.086;16.282;2022-12-20T15:42:12;15.50;;;12.70;;
12921;SDS011;6528;48.086;16.282;2022-12-20T15:44:41;16.30;;;12.73;;
12921;SDS011;6528;48.086;16.282;2022-12-20T15:47:11;15.40;;;11.87;;
12921;SDS011;6528;48.086;16.282;2022-12-20T15:49:39;16.80;;;12.97;;
12921;SDS011;6528;48.086;16.282;2022-12-20T15:52:17;15.10;;;13.47;;
12921;SDS011;6528;48.086;16.282;2022-12-20T15:54:45;16.30;;;13.97;;
12921;SDS011;6528;48.086;16.282;2022-12-20T15:57:13;15.97;;;12.73;;
12921;SDS011;6528;48.086;16.282;2022-12-20T15:59:41;15.60;;;13.20;;
12921;SDS011;6528;48.086;16.282;2022-12-20T16:02:28;16.80;;;12.80;;
12921;SDS011;6528;48.086;16.282;2022-12-20T16:04:56;16.77;;;13.50;;
12921;SDS011;6528;48.086;16.282;2022-12-20T16:07:24;14.70;;;12.70;;
12921;SDS011;6528;48.086;16.282;2022-12-20T16:09:51;15.57;;;13.10;;
12921;SDS011;6528;48.086;16.282;2022-12-20T16:12:24;14.73;;;11.40;;
12921;SDS011;6528;48.086;16.282;2022-12-20T16:14:51;15.97;;;12.70;;
12921;SDS011;6528;48.086;16.282;2022-12-20T16:17:18;13.37;;;11.80;;
12921;SDS011;6528;48.086;16.282;2022-12-20T16:19:46;14.37;;;12.53;;
12921;SDS011;6528;48.086;16.282;2022-12-20T16:22:14;14.60;;;12.00;;
12921;SDS011;6528;48.086;16.282;2022-12-20T16:24:41;14.47;;;12.17;;
12921;SDS011;6528;48.086;16.282;2022-12-20T16:27:09;15.97;;;12.57;;
12921;SDS011;6528;48.086;16.282;2022-12-20T16:29:36;16.70;;;13.20;;
12921;SDS011;6528;48.086;16.282;2022-12-20T16:32:08;14.27;;;12.20;;
12921;SDS011;6528;48.086;16.282;2022-12-20T16:34:38;14.30;;;12.80;;